createdAt,value
2019-05-01T00:01:42.996Z,83.60
2019-05-01T00:04:30.316Z,83.80
2019-05-01T00:07:04.234Z,84.30
2019-05-01T00:09:34.723Z,84.70
2019-05-01T00:12:05.206Z,84.70
2019-05-01T00:14:37.266Z,84.90
2019-05-01T00:17:07.799Z,84.80
2019-05-01T00:19:38.173Z,85.00
2019-05-01T00:22:08.655Z,84.80
2019-05-01T00:24:39.301Z,84.60
2019-05-01T00:27:10.840Z,84.50
2019-05-01T00:29:41.343Z,84.20
2019-05-01T00:32:11.813Z,84.20
2019-05-01T00:34:42.259Z,84.00
2019-05-01T00:37:12.757Z,83.90
2019-05-01T00:39:43.141Z,83.70
2019-05-01T00:42:13.804Z,84.00
2019-05-01T00:44:44.224Z,83.50
2019-05-01T00:47:14.699Z,83.40
2019-05-01T00:49:45.071Z,83.50
2019-05-01T00:52:15.521Z,83.70
2019-05-01T00:54:47.770Z,83.80
2019-05-01T00:57:39.293Z,83.80
2019-05-01T01:00:26.297Z,84.30
2019-05-01T01:02:57.209Z,84.40
2019-05-01T01:05:27.790Z,84.50
2019-05-01T01:07:58.698Z,84.40
2019-05-01T01:10:29.602Z,84.60
2019-05-01T01:13:00.349Z,84.70
2019-05-01T01:15:31.275Z,84.70
2019-05-01T01:18:13.370Z,84.70
2019-05-01T01:20:43.973Z,84.70
2019-05-01T01:23:14.963Z,84.70
2019-05-01T01:25:45.870Z,84.70
2019-05-01T01:28:17.328Z,85.10
2019-05-01T01:30:56.129Z,84.70
2019-05-01T01:33:20.813Z,84.60
2019-05-01T01:35:51.644Z,85.00
2019-05-01T01:38:22.662Z,85.00
2019-05-01T01:40:54.077Z,84.90
2019-05-01T01:43:41.049Z,84.90
2019-05-01T01:46:13.247Z,85.00
2019-05-01T01:48:43.911Z,84.90
2019-05-01T01:51:14.369Z,85.00
2019-05-01T01:53:45.074Z,84.70
2019-05-01T01:56:15.978Z,84.60
2019-05-01T01:58:46.567Z,84.80
2019-05-01T02:01:35.821Z,84.50
2019-05-01T02:04:13.852Z,84.50
2019-05-01T02:06:44.264Z,84.30
2019-05-01T02:09:14.772Z,84.00
2019-05-01T02:11:47.245Z,84.30
2019-05-01T02:14:17.785Z,84.30
2019-05-01T02:16:48.224Z,84.40
2019-05-01T02:19:18.613Z,84.50
2019-05-01T02:21:48.993Z,84.30
2019-05-01T02:24:19.463Z,84.00
2019-05-01T02:26:51.534Z,84.10
2019-05-01T02:29:28.264Z,84.10
2019-05-01T02:32:00.689Z,83.90
2019-05-01T02:34:31.524Z,83.60
2019-05-01T02:37:04.147Z,83.40
2019-05-01T02:39:35.794Z,83.60
2019-05-01T02:42:09.363Z,83.50
2019-05-01T02:44:44.938Z,83.60
2019-05-01T02:47:23.717Z,83.40
2019-05-01T02:50:03.187Z,83.40
2019-05-01T02:52:36.523Z,83.30
2019-05-01T02:55:28.398Z,83.20
2019-05-01T02:57:59.780Z,83.30
2019-05-01T03:00:30.990Z,83.30
2019-05-01T03:03:03.167Z,83.40
2019-05-01T03:05:34.414Z,83.40
2019-05-01T03:08:05.661Z,83.30
2019-05-01T03:10:36.304Z,83.30
2019-05-01T03:13:07.319Z,83.40
2019-05-01T03:15:39.159Z,83.40
2019-05-01T03:18:34.748Z,83.10
2019-05-01T03:21:14.320Z,83.40
2019-05-01T03:23:55.573Z,83.70
2019-05-01T03:26:26.719Z,83.80
2019-05-01T03:28:57.837Z,83.90
2019-05-01T03:31:28.993Z,84.00
2019-05-01T03:33:59.729Z,84.10
2019-05-01T03:36:30.229Z,84.20
2019-05-01T03:39:00.889Z,84.50
2019-05-01T03:41:33.052Z,84.40
2019-05-01T03:44:04.690Z,84.50
2019-05-01T03:46:35.641Z,84.30
2019-05-01T03:49:06.071Z,84.30
2019-05-01T03:51:36.756Z,84.20
2019-05-01T03:54:07.544Z,84.10
2019-05-01T03:56:38.233Z,84.10
2019-05-01T03:59:09.737Z,83.90
2019-05-01T04:02:02.224Z,83.90
2019-05-01T04:04:33.395Z,83.60
2019-05-01T04:07:03.974Z,83.90
2019-05-01T04:09:35.040Z,83.40
2019-05-01T04:12:05.774Z,83.10
2019-05-01T04:14:39.094Z,83.10
2019-05-01T04:17:19.116Z,83.20
2019-05-01T04:19:50.398Z,82.80
2019-05-01T04:22:21.316Z,82.90
2019-05-01T04:24:52.578Z,82.90
2019-05-01T04:27:28.677Z,82.50
2019-05-01T04:30:10.408Z,82.70
2019-05-01T04:32:51.776Z,82.30
2019-05-01T04:35:31.413Z,82.10
2019-05-01T04:38:02.026Z,81.80
2019-05-01T04:40:32.873Z,81.70
2019-05-01T04:43:03.615Z,82.10
2019-05-01T04:45:34.270Z,81.50
2019-05-01T04:48:23.769Z,81.70
2019-05-01T04:50:54.197Z,81.70
2019-05-01T04:53:25.365Z,81.70
2019-05-01T04:55:55.950Z,81.40
2019-05-01T04:58:26.898Z,81.10
2019-05-01T05:00:57.651Z,81.00
2019-05-01T05:03:28.434Z,80.80
2019-05-01T05:05:59.138Z,81.00
2019-05-01T05:08:29.796Z,80.80
2019-05-01T05:11:01.988Z,80.30
2019-05-01T05:14:00.935Z,80.20
2019-05-01T05:16:49.330Z,80.00
2019-05-01T05:19:19.914Z,80.00
2019-05-01T05:21:51.455Z,79.20
2019-05-01T05:24:22.812Z,78.50
2019-05-01T05:26:54.276Z,78.10
2019-05-01T05:29:26.645Z,78.20
2019-05-01T05:32:02.741Z,76.80
2019-05-01T05:34:34.034Z,76.30
2019-05-01T05:37:13.641Z,76.50
2019-05-01T05:39:46.701Z,74.80
2019-05-01T05:42:17.749Z,75.10
2019-05-01T05:44:49.468Z,74.80
2019-05-01T05:47:21.048Z,74.20
2019-05-01T05:49:51.665Z,74.90
2019-05-01T05:52:45.975Z,73.30
2019-05-01T05:55:44.951Z,73.50
2019-05-01T05:58:37.121Z,72.40
2019-05-01T06:01:28.707Z,72.30
2019-05-01T06:04:19.454Z,71.00
2019-05-01T06:07:07.412Z,71.20
2019-05-01T06:10:01.775Z,70.80
2019-05-01T06:12:57.640Z,69.50
2019-05-01T06:15:41.016Z,69.00
2019-05-01T06:18:23.391Z,68.90
2019-05-01T06:21:12.659Z,68.90
2019-05-01T06:23:57.752Z,67.80
2019-05-01T06:26:37.266Z,67.00
2019-05-01T06:29:06.538Z,66.60
2019-05-01T06:31:37.269Z,66.10
2019-05-01T06:34:07.648Z,65.90
2019-05-01T06:36:38.266Z,64.80
2019-05-01T06:39:11.994Z,64.10
2019-05-01T06:41:44.259Z,63.10
2019-05-01T06:44:44.349Z,62.20
2019-05-01T06:47:43.060Z,61.70
2019-05-01T06:50:31.827Z,61.30
2019-05-01T06:53:04.598Z,60.60
2019-05-01T06:55:36.843Z,60.90
2019-05-01T06:58:07.933Z,59.90
2019-05-01T07:00:43.043Z,59.40
2019-05-01T07:03:13.658Z,59.70
2019-05-01T07:05:54.549Z,59.90
2019-05-01T07:08:29.605Z,60.40
2019-05-01T07:11:00.537Z,60.40
2019-05-01T07:13:35.588Z,60.90
2019-05-01T07:16:05.490Z,60.60
2019-05-01T07:18:36.992Z,61.00
2019-05-01T07:21:08.018Z,61.60
2019-05-01T07:23:39.269Z,60.90
2019-05-01T07:26:13.714Z,59.90
2019-05-01T07:28:44.424Z,60.50
2019-05-01T07:31:16.073Z,60.70
2019-05-01T07:33:51.310Z,60.40
2019-05-01T07:36:22.909Z,59.50
2019-05-01T07:38:54.193Z,58.90
2019-05-01T07:41:26.966Z,58.70
2019-05-01T07:44:15.848Z,57.90
2019-05-01T07:47:05.885Z,58.20
2019-05-01T07:50:09.170Z,57.80
2019-05-01T07:52:41.183Z,57.70
2019-05-01T07:55:13.094Z,56.70
2019-05-01T07:57:46.008Z,57.50
2019-05-01T08:00:30.527Z,59.00
2019-05-01T08:03:02.672Z,60.00
2019-05-01T08:05:33.333Z,60.00
2019-05-01T08:08:07.928Z,60.20
2019-05-01T08:10:36.014Z,60.60
2019-05-01T08:13:06.417Z,60.90
2019-05-01T08:15:36.969Z,60.20
2019-05-01T08:18:32.080Z,59.70
2019-05-01T08:21:39.706Z,59.80
2019-05-01T08:24:10.238Z,59.30
2019-05-01T08:26:44.259Z,59.60
2019-05-01T08:29:36.901Z,58.20
2019-05-01T08:32:26.400Z,57.70
2019-05-01T08:35:02.426Z,57.50
2019-05-01T08:37:36.785Z,56.50
2019-05-01T08:40:07.885Z,56.20
2019-05-01T08:42:57.516Z,55.90
2019-05-01T08:45:53.677Z,56.60
2019-05-01T08:48:35.772Z,57.20
2019-05-01T08:51:07.363Z,56.90
2019-05-01T08:53:37.840Z,55.70
2019-05-01T08:56:09.760Z,56.30
2019-05-01T08:58:44.845Z,56.10
2019-05-01T09:01:14.966Z,55.70
2019-05-01T09:03:45.199Z,56.50
2019-05-01T09:06:15.701Z,56.50
2019-05-01T09:08:46.352Z,56.50
2019-05-01T09:11:16.977Z,56.80
2019-05-01T09:13:47.902Z,56.70
2019-05-01T09:16:19.268Z,57.50
2019-05-01T09:18:50.343Z,57.40
2019-05-01T09:21:21.261Z,57.50
2019-05-01T09:23:53.233Z,56.70
2019-05-01T09:26:45.354Z,56.00
2019-05-01T09:29:21.731Z,55.30
2019-05-01T09:31:52.402Z,54.80
2019-05-01T09:34:23.237Z,54.40
2019-05-01T09:36:53.633Z,54.00
2019-05-01T09:39:24.766Z,54.30
2019-05-01T09:41:55.291Z,54.30
2019-05-01T09:44:26.050Z,54.50
2019-05-01T09:46:56.726Z,54.10
2019-05-01T09:49:27.277Z,52.10
2019-05-01T09:52:24.585Z,52.70
2019-05-01T09:55:22.543Z,51.40
2019-05-01T09:57:49.896Z,50.40
2019-05-01T10:00:27.353Z,51.10
2019-05-01T10:02:57.937Z,50.90
2019-05-01T10:05:29.325Z,50.90
2019-05-01T10:08:03.953Z,51.00
2019-05-01T10:10:32.236Z,49.50
2019-05-01T10:13:02.728Z,47.50
2019-05-01T10:15:33.267Z,47.90
2019-05-01T10:18:03.820Z,47.70
2019-05-01T10:20:34.473Z,47.30
2019-05-01T10:23:07.880Z,46.20
2019-05-01T10:25:42.889Z,48.30
2019-05-01T10:28:17.797Z,46.20
2019-05-01T10:30:58.924Z,45.00
2019-05-01T10:33:32.709Z,45.30
2019-05-01T10:36:17.801Z,46.10
2019-05-01T10:38:45.084Z,46.90
2019-05-01T10:41:15.431Z,46.60
2019-05-01T10:43:45.928Z,44.90
2019-05-01T10:46:16.445Z,44.80
2019-05-01T10:48:46.936Z,44.30
2019-05-01T10:51:17.411Z,43.20
2019-05-01T10:53:47.881Z,44.40
2019-05-01T10:56:18.367Z,45.50
2019-05-01T10:58:49.291Z,45.10
2019-05-01T11:01:29.904Z,45.00
2019-05-01T11:04:00.599Z,44.80
2019-05-01T11:06:31.196Z,45.70
2019-05-01T11:09:01.752Z,45.60
2019-05-01T11:11:33.918Z,44.80
2019-05-01T11:14:04.837Z,44.60
2019-05-01T11:16:35.482Z,44.40
2019-05-01T11:19:06.532Z,44.40
2019-05-01T11:21:37.247Z,43.30
2019-05-01T11:24:07.894Z,43.40
2019-05-01T11:26:38.532Z,43.80
2019-05-01T11:29:09.649Z,43.40
2019-05-01T11:31:47.355Z,44.50
2019-05-01T11:34:41.026Z,44.70
2019-05-01T11:37:29.445Z,44.60
2019-05-01T11:40:07.972Z,44.70
2019-05-01T11:42:38.906Z,44.90
2019-05-01T11:45:11.345Z,45.10
2019-05-01T11:47:42.481Z,46.10
2019-05-01T11:50:13.501Z,45.90
2019-05-01T11:52:44.371Z,45.40
2019-05-01T11:55:15.332Z,45.40
2019-05-01T11:57:46.271Z,45.80
2019-05-01T12:00:18.667Z,46.40
2019-05-01T12:02:49.220Z,45.70
2019-05-01T12:05:19.973Z,45.60
2019-05-01T12:07:50.976Z,45.70
2019-05-01T12:10:22.221Z,46.40
2019-05-01T12:12:53.341Z,45.90
2019-05-01T12:15:25.377Z,46.00
2019-05-01T12:17:56.586Z,46.40
2019-05-01T12:20:27.430Z,46.60
2019-05-01T12:22:58.676Z,47.30
2019-05-01T12:25:48.064Z,47.80
2019-05-01T12:28:19.159Z,47.60
2019-05-01T12:30:50.131Z,48.40
2019-05-01T12:33:21.502Z,48.00
2019-05-01T12:35:54.029Z,47.80
2019-05-01T12:38:26.162Z,48.10
2019-05-01T12:41:14.259Z,48.30
2019-05-01T12:43:45.201Z,47.80
2019-05-01T12:46:36.745Z,47.40
2019-05-01T12:49:07.799Z,47.40
2019-05-01T12:51:40.507Z,48.20
2019-05-01T12:54:20.457Z,48.30
2019-05-01T12:56:54.869Z,48.20
2019-05-01T12:59:25.982Z,48.60
2019-05-01T13:01:58.250Z,49.20
2019-05-01T13:04:29.365Z,49.10
2019-05-01T13:07:02.024Z,49.20
2019-05-01T13:09:33.501Z,49.00
2019-05-01T13:12:04.488Z,49.50
2019-05-01T13:14:35.160Z,49.80
2019-05-01T13:17:05.979Z,50.00
2019-05-01T13:19:37.062Z,49.50
2019-05-01T13:22:07.993Z,49.30
2019-05-01T13:24:50.047Z,49.80
2019-05-01T13:27:27.004Z,50.00
2019-05-01T13:30:08.374Z,50.60
2019-05-01T13:32:46.842Z,50.40
2019-05-01T13:35:17.728Z,50.60
2019-05-01T13:37:48.695Z,50.10
2019-05-01T13:40:19.919Z,50.40
2019-05-01T13:42:50.944Z,50.60
2019-05-01T13:45:21.846Z,50.30
2019-05-01T13:47:54.633Z,50.00
2019-05-01T13:50:27.265Z,50.10
2019-05-01T13:52:58.066Z,50.20
2019-05-01T13:55:28.975Z,50.60
2019-05-01T13:57:59.866Z,50.80
2019-05-01T14:00:32.068Z,50.60
2019-05-01T14:03:03.078Z,50.60
2019-05-01T14:05:34.131Z,50.60
2019-05-01T14:08:05.353Z,50.60
2019-05-01T14:10:36.174Z,51.40
2019-05-01T14:13:06.945Z,50.90
2019-05-01T14:15:38.070Z,51.00
2019-05-01T14:18:08.574Z,50.80
2019-05-01T14:20:51.710Z,51.00
2019-05-01T14:23:41.235Z,51.20
2019-05-01T14:26:11.656Z,51.40
2019-05-01T14:28:42.158Z,51.20
2019-05-01T14:31:12.670Z,51.60
2019-05-01T14:33:43.185Z,51.50
2019-05-01T14:36:13.631Z,51.70
2019-05-01T14:38:44.023Z,51.80
2019-05-01T14:41:14.503Z,52.00
2019-05-01T14:43:44.882Z,52.00
2019-05-01T14:46:15.437Z,51.90
2019-05-01T14:48:47.298Z,51.70
2019-05-01T14:51:17.748Z,51.90
2019-05-01T14:53:48.130Z,52.10
2019-05-01T14:56:18.582Z,52.40
2019-05-01T14:58:48.976Z,52.50
2019-05-01T15:01:19.561Z,52.30
2019-05-01T15:03:50.035Z,52.60
2019-05-01T15:06:20.722Z,52.40
2019-05-01T15:08:51.173Z,52.60
2019-05-01T15:11:21.677Z,52.60
2019-05-01T15:14:23.217Z,53.00
2019-05-01T15:17:15.283Z,53.20
2019-05-01T15:19:50.902Z,53.40
2019-05-01T15:22:21.497Z,53.60
2019-05-01T15:24:52.489Z,53.60
2019-05-01T15:27:22.929Z,53.50
2019-05-01T15:29:53.521Z,53.60
2019-05-01T15:32:24.117Z,53.80
2019-05-01T15:34:54.708Z,54.10
2019-05-01T15:37:25.108Z,54.30
2019-05-01T15:40:00.183Z,54.50
2019-05-01T15:42:42.030Z,54.90
2019-05-01T15:45:12.826Z,55.10
2019-05-01T15:47:43.461Z,55.30
2019-05-01T15:50:14.053Z,55.10
2019-05-01T15:52:44.469Z,55.00
2019-05-01T15:55:15.150Z,54.90
2019-05-01T15:57:45.539Z,54.90
2019-05-01T16:00:18.469Z,54.70
2019-05-01T16:02:48.918Z,54.80
2019-05-01T16:05:19.306Z,55.10
2019-05-01T16:07:49.834Z,55.00
2019-05-01T16:10:24.616Z,54.80
2019-05-01T16:12:59.089Z,54.90
2019-05-01T16:15:34.123Z,54.90
2019-05-01T16:18:05.029Z,54.90
2019-05-01T16:20:35.533Z,55.00
2019-05-01T16:23:06.051Z,55.10
2019-05-01T16:25:36.463Z,55.10
2019-05-01T16:28:07.058Z,55.10
2019-05-01T16:30:37.603Z,55.10
2019-05-01T16:33:08.272Z,55.20
2019-05-01T16:35:38.767Z,55.20
2019-05-01T16:38:22.756Z,55.10
2019-05-01T16:40:59.282Z,55.40
2019-05-01T16:43:29.707Z,55.50
2019-05-01T16:46:00.072Z,55.80
2019-05-01T16:48:30.683Z,56.00
2019-05-01T16:51:01.073Z,56.20
2019-05-01T16:53:31.624Z,56.50
2019-05-01T16:56:02.157Z,56.60
2019-05-01T16:58:34.640Z,56.60
2019-05-01T17:01:13.313Z,57.00
2019-05-01T17:04:10.870Z,56.90
2019-05-01T17:06:59.403Z,57.10
2019-05-01T17:09:48.722Z,57.30
2019-05-01T17:12:20.824Z,57.50
2019-05-01T17:14:51.354Z,57.90
2019-05-01T17:17:22.274Z,58.20
2019-05-01T17:19:52.770Z,58.40
2019-05-01T17:22:23.178Z,58.50
2019-05-01T17:24:53.859Z,58.60
2019-05-01T17:27:24.341Z,58.60
2019-05-01T17:30:02.152Z,58.80
2019-05-01T17:32:32.744Z,58.90
2019-05-01T17:35:06.690Z,58.90
2019-05-01T17:37:35.421Z,59.20
2019-05-01T17:40:06.497Z,59.00
2019-05-01T17:42:37.610Z,59.20
2019-05-01T17:45:09.425Z,59.40
2019-05-01T17:47:40.011Z,59.50
2019-05-01T17:50:16.359Z,59.70
2019-05-01T17:52:45.299Z,59.90
2019-05-01T17:55:15.831Z,60.90
2019-05-01T17:57:47.757Z,60.20
2019-05-01T18:00:37.347Z,60.40
2019-05-01T18:03:19.452Z,60.50
2019-05-01T18:06:07.542Z,60.70
2019-05-01T18:08:38.000Z,60.80
2019-05-01T18:11:09.390Z,60.70
2019-05-01T18:13:40.672Z,60.90
2019-05-01T18:16:11.191Z,60.80
2019-05-01T18:18:41.608Z,60.70
2019-05-01T18:21:12.696Z,60.50
2019-05-01T18:24:00.979Z,60.70
2019-05-01T18:26:38.809Z,60.80
2019-05-01T18:29:22.317Z,60.80
2019-05-01T18:31:53.234Z,60.90
2019-05-01T18:34:24.152Z,61.10
2019-05-01T18:37:01.798Z,61.50
2019-05-01T18:39:37.747Z,61.70
2019-05-01T18:42:11.537Z,62.00
2019-05-01T18:44:47.315Z,62.00
2019-05-01T18:47:15.386Z,62.20
2019-05-01T18:49:46.046Z,62.50
2019-05-01T18:52:16.677Z,62.40
2019-05-01T18:54:47.630Z,62.30
2019-05-01T18:57:18.600Z,62.30
2019-05-01T18:59:49.597Z,62.20
2019-05-01T19:02:25.028Z,62.20
2019-05-01T19:04:53.593Z,62.40
2019-05-01T19:07:24.594Z,62.30
2019-05-01T19:09:56.680Z,62.60
2019-05-01T19:12:27.596Z,62.70
2019-05-01T19:15:00.420Z,62.90
2019-05-01T19:17:31.025Z,62.80
2019-05-01T19:20:01.961Z,63.00
2019-05-01T19:22:33.027Z,62.90
2019-05-01T19:25:04.335Z,63.00
2019-05-01T19:27:35.185Z,63.10
2019-05-01T19:30:09.698Z,63.10
2019-05-01T19:32:38.936Z,63.00
2019-05-01T19:35:09.384Z,62.90
2019-05-01T19:37:39.840Z,63.10
2019-05-01T19:40:10.447Z,62.90
2019-05-01T19:42:41.014Z,62.90
2019-05-01T19:45:11.735Z,62.80
2019-05-01T19:47:42.333Z,62.80
2019-05-01T19:50:13.340Z,62.90
2019-05-01T19:52:44.953Z,63.10
2019-05-01T19:55:15.463Z,63.20
2019-05-01T19:57:45.947Z,63.30
2019-05-01T20:00:20.906Z,63.60
2019-05-01T20:02:54.191Z,63.70
2019-05-01T20:05:27.224Z,64.00
2019-05-01T20:07:56.342Z,64.40
2019-05-01T20:10:28.521Z,64.40
2019-05-01T20:12:59.239Z,68.90
2019-05-01T20:15:29.737Z,64.40
2019-05-01T20:18:00.296Z,68.30
2019-05-01T20:20:30.898Z,64.50
2019-05-01T20:23:01.310Z,64.10
2019-05-01T20:25:31.765Z,64.60
2019-05-01T20:28:02.277Z,64.60
2019-05-01T20:30:32.730Z,64.50
2019-05-01T20:33:03.760Z,64.70
2019-05-01T20:35:34.891Z,64.60
2019-05-01T20:38:06.495Z,64.60
2019-05-01T20:40:37.894Z,64.70
2019-05-01T20:43:08.394Z,64.60
2019-05-01T20:45:38.904Z,64.60
2019-05-01T20:48:09.449Z,64.40
2019-05-01T20:50:39.841Z,64.30
2019-05-01T20:53:10.275Z,64.30
2019-05-01T20:55:42.381Z,64.20
2019-05-01T20:58:20.140Z,64.10
2019-05-01T21:00:57.809Z,64.00
2019-05-01T21:03:28.382Z,64.10
2019-05-01T21:06:21.750Z,64.20
2019-05-01T21:09:13.718Z,64.00
2019-05-01T21:11:47.242Z,64.10
2019-05-01T21:14:22.381Z,63.90
2019-05-01T21:16:48.794Z,63.90
2019-05-01T21:19:19.249Z,63.90
2019-05-01T21:21:49.759Z,64.20
2019-05-01T21:24:20.267Z,64.30
2019-05-01T21:26:50.890Z,64.20
2019-05-01T21:29:24.077Z,64.50
2019-05-01T21:31:54.540Z,64.80
2019-05-01T21:34:24.951Z,66.10
2019-05-01T21:36:55.459Z,65.50
2019-05-01T21:39:27.013Z,65.30
2019-05-01T21:41:57.561Z,65.70
2019-05-01T21:44:28.057Z,65.70
2019-05-01T21:47:07.533Z,66.00
2019-05-01T21:49:37.989Z,66.30
2019-05-01T21:52:08.545Z,66.80
2019-05-01T21:54:39.122Z,66.70
2019-05-01T21:57:11.967Z,66.60
2019-05-01T21:59:44.772Z,67.00
2019-05-01T22:02:14.041Z,67.10
2019-05-01T22:04:44.483Z,67.10
2019-05-01T22:07:14.970Z,67.10
2019-05-01T22:09:45.544Z,67.10
2019-05-01T22:12:17.708Z,67.40
2019-05-01T22:14:56.381Z,67.30
2019-05-01T22:17:35.106Z,67.50
2019-05-01T22:20:06.934Z,67.20
2019-05-01T22:22:43.983Z,67.50
2019-05-01T22:25:28.905Z,67.50
2019-05-01T22:28:04.866Z,67.80
2019-05-01T22:30:42.227Z,68.20
2019-05-01T22:33:11.057Z,68.40
2019-05-01T22:35:44.789Z,67.90
2019-05-01T22:38:15.227Z,68.40
2019-05-01T22:41:05.546Z,68.20
2019-05-01T22:43:25.338Z,68.40
2019-05-01T22:45:56.339Z,68.20
2019-05-01T22:48:28.019Z,68.40
2019-05-01T22:51:02.501Z,68.50
2019-05-01T22:53:32.984Z,68.60
2019-05-01T22:56:04.137Z,68.60
2019-05-01T22:58:35.731Z,68.60
2019-05-01T23:01:07.552Z,68.60
2019-05-01T23:03:49.008Z,68.60
2019-05-01T23:06:19.489Z,68.70
2019-05-01T23:08:49.974Z,68.60
2019-05-01T23:11:21.201Z,68.70
2019-05-01T23:13:51.805Z,68.80
2019-05-01T23:16:28.849Z,68.90
2019-05-01T23:18:56.030Z,68.90
2019-05-01T23:21:26.711Z,69.10
2019-05-01T23:24:01.873Z,69.00
2019-05-01T23:26:29.195Z,69.10
2019-05-01T23:28:59.569Z,69.10
2019-05-01T23:31:30.026Z,68.90
2019-05-01T23:34:00.402Z,69.00
2019-05-01T23:36:30.788Z,68.80
2019-05-01T23:39:01.219Z,68.70
2019-05-01T23:41:45.898Z,68.60
2019-05-01T23:44:05.521Z,68.90
2019-05-01T23:46:36.027Z,69.00
2019-05-01T23:49:06.407Z,69.50
2019-05-01T23:51:36.889Z,70.60
2019-05-01T23:54:08.361Z,69.80
2019-05-01T23:56:38.853Z,70.00
2019-05-01T23:59:09.370Z,70.00
